Flight Track Log - Related Links

Times and Time Zones

All times are in EDT time to prevent confusion due to time zone crossing. See the N77SD flight status page for this flight to view local times or setup timezone preferences in your user account.

Time Position Orientation Groundspeed Altitude Reporting Facility
EDT Latitude Longitude Course Direction KTS MPH feet Rate Location/Type
Wed 04:53:07 PM 35.5017 -77.4111 193° South 242 278 5,200  Level Washington Center
Wed 04:54:05 PM 35.4597 -77.4231 193° South 198 228 7,500 2,168 Climbing Washington Center
Wed 04:55:06 PM 35.4178 -77.4372 195° South 168 193 9,500 1,983 Climbing Washington Center
Wed 04:56:06 PM 35.3781 -77.4542 199° South 156 180 11,500 1,261 Climbing Washington Center
Wed 04:57:05 PM 35.3339 -77.4711 197° South 156 180 12,000 252 Climbing Washington Center
Wed 04:58:05 PM 35.2750 -77.4950 198° South 185 213 12,000  Level Washington Center
Wed 04:59:06 PM 35.2142 -77.5217 200° South 220 253 12,000  Level Washington Center
Wed 05:00:07 PM 35.1533 -77.5456 198° South 231 266 12,000 -202 Level Washington Center
Wed 05:01:05 PM 35.0881 -77.5694 197° South 238 274 11,600 -508 Descending Washington Center
Wed 05:02:05 PM 35.0250 -77.5958 199° South 243 280 11,000 -298 Descending Washington Center
Wed 05:03:06 PM 34.9619 -77.6219 199° South 243 280 11,000 -298 Level Washington Center
Wed 05:04:06 PM 34.9011 -77.6458 198° South 243 280 10,400 -893 Descending Washington Center
Wed 05:05:07 PM 34.8467 -77.6672 198° South 236 272 9,200 -1,311 Descending Washington Center
Wed 05:06:05 PM 34.7961 -77.6889 199° South 216 249 7,800 -1,210 Descending Washington Center
Wed 05:07:06 PM 34.7478 -77.7078 198° South 202 232 6,800 -1,091 Descending Washington Center
Wed 05:08:06 PM 34.6994 -77.7267 198° South 190 219 5,600 -1,180 Descending Washington Center
Wed 05:09:08 PM 34.6511 -77.7431 196° South 185 213 4,400 -857 Descending Washington Center
Wed 05:10:05 PM 34.6050 -77.7569 194° South 185 213 3,900 -254 Descending Washington Center
Wed 05:11:06 PM 34.5569 -77.7633 186° South 185 213 3,900  Level Washington Center
Wed 05:13:00 PM 34.4749 -77.8100 198° South  Level FlightAware Approximate
Wed 05:20:00 PM 34.2667 -77.9000 202° Southwest  Level FlightAware Approximate
Wed 05:21:00 PM 34.2706 -77.9026 202° Southwest  Level Estimated

Login

Don't have an account? Register now (free) for customized features, flight alerts, and more!